sensor_id;sensor_type;location;lat;lon;timestamp;temperature;humidity
5041;DHT22;2539;52.568;13.364;2022-12-26T00:01:59;8.80;99.90
5041;DHT22;2539;52.568;13.364;2022-12-26T00:04:26;8.80;99.90
5041;DHT22;2539;52.568;13.364;2022-12-26T00:06:53;8.70;99.90
5041;DHT22;2539;52.568;13.364;2022-12-26T00:09:19;8.80;99.90
5041;DHT22;2539;52.568;13.364;2022-12-26T00:11:46;8.80;99.90
5041;DHT22;2539;52.568;13.364;2022-12-26T00:14:15;8.70;99.90
5041;DHT22;2539;52.568;13.364;2022-12-26T00:16:43;8.80;99.90
5041;DHT22;2539;52.568;13.364;2022-12-26T00:19:10;8.80;99.90
5041;DHT22;2539;52.568;13.364;2022-12-26T00:21:36;8.80;99.90
5041;DHT22;2539;52.568;13.364;2022-12-26T00:24:03;8.80;99.90
5041;DHT22;2539;52.568;13.364;2022-12-26T00:26:31;8.80;99.90
5041;DHT22;2539;52.568;13.364;2022-12-26T00:28:57;8.80;99.90
5041;DHT22;2539;52.568;13.364;2022-12-26T00:31:26;8.70;99.90
5041;DHT22;2539;52.568;13.364;2022-12-26T00:33:54;8.80;99.90
5041;DHT22;2539;52.568;13.364;2022-12-26T00:36:26;8.80;99.90
5041;DHT22;2539;52.568;13.364;2022-12-26T00:38:55;8.80;99.90
5041;DHT22;2539;52.568;13.364;2022-12-26T00:41:22;8.80;99.90
5041;DHT22;2539;52.568;13.364;2022-12-26T00:43:48;8.90;99.90
5041;DHT22;2539;52.568;13.364;2022-12-26T00:46:16;8.90;99.90
5041;DHT22;2539;52.568;13.364;2022-12-26T00:48:42;8.90;99.90
5041;DHT22;2539;52.568;13.364;2022-12-26T00:51:09;8.90;99.90
5041;DHT22;2539;52.568;13.364;2022-12-26T00:53:35;8.90;99.90
5041;DHT22;2539;52.568;13.364;2022-12-26T00:56:02;8.90;99.90
5041;DHT22;2539;52.568;13.364;2022-12-26T00:58:28;8.90;99.90
5041;DHT22;2539;52.568;13.364;2022-12-26T01:01:09;8.90;99.90
5041;DHT22;2539;52.568;13.364;2022-12-26T01:03:37;9.00;99.90
5041;DHT22;2539;52.568;13.364;2022-12-26T01:06:04;9.00;99.90
5041;DHT22;2539;52.568;13.364;2022-12-26T01:08:33;9.10;99.90
5041;DHT22;2539;52.568;13.364;2022-12-26T01:11:08;9.10;99.90
5041;DHT22;2539;52.568;13.364;2022-12-26T01:13:35;9.00;99.90
5041;DHT22;2539;52.568;13.364;2022-12-26T01:16:03;9.10;99.90
5041;DHT22;2539;52.568;13.364;2022-12-26T01:18:30;9.00;99.90
5041;DHT22;2539;52.568;13.364;2022-12-26T01:20:58;9.10;99.90
5041;DHT22;2539;52.568;13.364;2022-12-26T01:23:24;9.10;99.90
5041;DHT22;2539;52.568;13.364;2022-12-26T01:25:51;9.10;99.90
5041;DHT22;2539;52.568;13.364;2022-12-26T01:28:17;9.00;99.90
5041;DHT22;2539;52.568;13.364;2022-12-26T01:30:43;9.10;99.90
5041;DHT22;2539;52.568;13.364;2022-12-26T01:33:09;9.20;99.90
5041;DHT22;2539;52.568;13.364;2022-12-26T01:35:36;9.20;99.90
5041;DHT22;2539;52.568;13.364;2022-12-26T01:38:02;9.20;99.90
5041;DHT22;2539;52.568;13.364;2022-12-26T01:40:28;9.20;99.90
5041;DHT22;2539;52.568;13.364;2022-12-26T01:42:54;9.20;99.90
5041;DHT22;2539;52.568;13.364;2022-12-26T01:45:30;9.10;99.90
5041;DHT22;2539;52.568;13.364;2022-12-26T01:48:18;9.10;99.90
5041;DHT22;2539;52.568;13.364;2022-12-26T01:50:56;9.20;99.90
5041;DHT22;2539;52.568;13.364;2022-12-26T01:53:30;9.20;99.90
5041;DHT22;2539;52.568;13.364;2022-12-26T01:56:06;9.20;99.90
5041;DHT22;2539;52.568;13.364;2022-12-26T01:58:36;9.20;99.90
5041;DHT22;2539;52.568;13.364;2022-12-26T02:01:05;9.10;99.90
5041;DHT22;2539;52.568;13.364;2022-12-26T02:03:34;9.10;99.90
5041;DHT22;2539;52.568;13.364;2022-12-26T02:06:20;9.20;99.90
5041;DHT22;2539;52.568;13.364;2022-12-26T02:08:46;9.00;99.90
5041;DHT22;2539;52.568;13.364;2022-12-26T02:11:35;9.00;99.90
5041;DHT22;2539;52.568;13.364;2022-12-26T02:14:05;8.90;99.90
5041;DHT22;2539;52.568;13.364;2022-12-26T02:16:32;9.00;99.90
5041;DHT22;2539;52.568;13.364;2022-12-26T02:18:58;9.10;99.90
5041;DHT22;2539;52.568;13.364;2022-12-26T02:27:29;9.20;99.90
5041;DHT22;2539;52.568;13.364;2022-12-26T02:30:06;9.20;99.90
5041;DHT22;2539;52.568;13.364;2022-12-26T02:32:59;9.30;99.90
5041;DHT22;2539;52.568;13.364;2022-12-26T02:41:17;9.30;99.90
5041;DHT22;2539;52.568;13.364;2022-12-26T02:44:17;9.20;99.90
5041;DHT22;2539;52.568;13.364;2022-12-26T02:47:13;9.30;99.90
5041;DHT22;2539;52.568;13.364;2022-12-26T02:50:08;9.30;99.90
5041;DHT22;2539;52.568;13.364;2022-12-26T02:53:20;8.50;99.90
5041;DHT22;2539;52.568;13.364;2022-12-26T02:56:18;9.40;99.90
5041;DHT22;2539;52.568;13.364;2022-12-26T02:59:13;9.40;99.90
5041;DHT22;2539;52.568;13.364;2022-12-26T03:02:02;9.40;99.90
5041;DHT22;2539;52.568;13.364;2022-12-26T03:04:50;9.30;99.90
5041;DHT22;2539;52.568;13.364;2022-12-26T03:07:38;9.40;99.90
5041;DHT22;2539;52.568;13.364;2022-12-26T03:10:28;9.40;99.90
5041;DHT22;2539;52.568;13.364;2022-12-26T03:13:30;9.30;99.90
5041;DHT22;2539;52.568;13.364;2022-12-26T03:16:02;9.30;99.90
5041;DHT22;2539;52.568;13.364;2022-12-26T03:18:51;9.40;99.90
5041;DHT22;2539;52.568;13.364;2022-12-26T03:21:21;9.40;99.90
5041;DHT22;2539;52.568;13.364;2022-12-26T03:23:50;9.40;99.90
5041;DHT22;2539;52.568;13.364;2022-12-26T03:26:21;9.40;99.90
5041;DHT22;2539;52.568;13.364;2022-12-26T03:29:11;9.40;99.90
5041;DHT22;2539;52.568;13.364;2022-12-26T03:31:57;9.40;99.90
5041;DHT22;2539;52.568;13.364;2022-12-26T03:34:23;9.40;99.90
5041;DHT22;2539;52.568;13.364;2022-12-26T03:39:48;9.40;99.90
5041;DHT22;2539;52.568;13.364;2022-12-26T03:54:50;9.60;99.90
5041;DHT22;2539;52.568;13.364;2022-12-26T03:57:53;9.60;99.90
5041;DHT22;2539;52.568;13.364;2022-12-26T04:00:44;9.60;99.90
5041;DHT22;2539;52.568;13.364;2022-12-26T04:03:31;9.60;99.90
5041;DHT22;2539;52.568;13.364;2022-12-26T04:06:21;9.60;99.90
5041;DHT22;2539;52.568;13.364;2022-12-26T04:09:18;9.70;99.90
5041;DHT22;2539;52.568;13.364;2022-12-26T04:12:05;9.70;99.90
5041;DHT22;2539;52.568;13.364;2022-12-26T04:14:55;9.80;99.90
5041;DHT22;2539;52.568;13.364;2022-12-26T04:20:50;9.80;99.90
5041;DHT22;2539;52.568;13.364;2022-12-26T04:23:27;9.80;99.90
5041;DHT22;2539;52.568;13.364;2022-12-26T04:26:38;9.80;99.90
5041;DHT22;2539;52.568;13.364;2022-12-26T04:29:24;9.90;99.90
5041;DHT22;2539;52.568;13.364;2022-12-26T04:32:22;9.90;99.90
5041;DHT22;2539;52.568;13.364;2022-12-26T04:35:28;9.90;99.90
5041;DHT22;2539;52.568;13.364;2022-12-26T04:38:20;9.80;99.90
5041;DHT22;2539;52.568;13.364;2022-12-26T04:41:06;9.90;99.90
5041;DHT22;2539;52.568;13.364;2022-12-26T04:43:54;10.00;99.90
5041;DHT22;2539;52.568;13.364;2022-12-26T04:46:31;10.10;99.90
5041;DHT22;2539;52.568;13.364;2022-12-26T04:48:59;10.10;99.90
5041;DHT22;2539;52.568;13.364;2022-12-26T04:51:47;10.10;99.90
5041;DHT22;2539;52.568;13.364;2022-12-26T04:54:14;10.10;99.90
5041;DHT22;2539;52.568;13.364;2022-12-26T04:56:40;10.10;99.90
5041;DHT22;2539;52.568;13.364;2022-12-26T04:59:06;10.10;99.90
5041;DHT22;2539;52.568;13.364;2022-12-26T05:01:32;10.20;99.90
5041;DHT22;2539;52.568;13.364;2022-12-26T05:04:18;10.10;99.90
5041;DHT22;2539;52.568;13.364;2022-12-26T05:07:04;10.20;99.90
5041;DHT22;2539;52.568;13.364;2022-12-26T05:09:52;10.10;99.90
5041;DHT22;2539;52.568;13.364;2022-12-26T05:12:19;10.10;99.90
5041;DHT22;2539;52.568;13.364;2022-12-26T05:14:46;10.00;99.90
5041;DHT22;2539;52.568;13.364;2022-12-26T05:17:13;10.00;99.90
5041;DHT22;2539;52.568;13.364;2022-12-26T05:19:58;10.00;99.90
5041;DHT22;2539;52.568;13.364;2022-12-26T05:22:43;10.00;99.90
5041;DHT22;2539;52.568;13.364;2022-12-26T05:25:32;10.00;99.90
5041;DHT22;2539;52.568;13.364;2022-12-26T05:28:18;10.00;99.90
5041;DHT22;2539;52.568;13.364;2022-12-26T05:31:04;10.00;99.90
5041;DHT22;2539;52.568;13.364;2022-12-26T05:33:30;10.00;99.90
5041;DHT22;2539;52.568;13.364;2022-12-26T05:36:18;10.00;99.90
5041;DHT22;2539;52.568;13.364;2022-12-26T05:38:45;10.00;99.90
5041;DHT22;2539;52.568;13.364;2022-12-26T05:41:11;10.10;99.90
5041;DHT22;2539;52.568;13.364;2022-12-26T05:43:37;10.10;99.90
5041;DHT22;2539;52.568;13.364;2022-12-26T05:46:04;10.00;99.90
5041;DHT22;2539;52.568;13.364;2022-12-26T05:48:30;10.10;99.90
5041;DHT22;2539;52.568;13.364;2022-12-26T05:51:00;10.10;99.90
5041;DHT22;2539;52.568;13.364;2022-12-26T05:53:27;10.10;99.90
5041;DHT22;2539;52.568;13.364;2022-12-26T05:55:54;10.10;99.90
5041;DHT22;2539;52.568;13.364;2022-12-26T05:58:20;10.10;99.90
5041;DHT22;2539;52.568;13.364;2022-12-26T06:00:46;11.40;99.90
5041;DHT22;2539;52.568;13.364;2022-12-26T06:03:13;10.10;99.90
5041;DHT22;2539;52.568;13.364;2022-12-26T06:05:39;10.00;99.90
5041;DHT22;2539;52.568;13.364;2022-12-26T06:08:05;10.10;99.90
5041;DHT22;2539;52.568;13.364;2022-12-26T06:10:31;10.10;99.90
5041;DHT22;2539;52.568;13.364;2022-12-26T06:12:59;10.10;99.90
5041;DHT22;2539;52.568;13.364;2022-12-26T06:15:26;10.10;99.90
5041;DHT22;2539;52.568;13.364;2022-12-26T06:17:53;10.20;99.90
5041;DHT22;2539;52.568;13.364;2022-12-26T06:20:20;10.20;99.90
5041;DHT22;2539;52.568;13.364;2022-12-26T06:22:46;10.30;99.90
5041;DHT22;2539;52.568;13.364;2022-12-26T06:25:13;10.30;99.90
5041;DHT22;2539;52.568;13.364;2022-12-26T06:27:41;10.30;99.90
5041;DHT22;2539;52.568;13.364;2022-12-26T06:30:08;10.30;99.90
5041;DHT22;2539;52.568;13.364;2022-12-26T06:32:34;10.20;99.90
5041;DHT22;2539;52.568;13.364;2022-12-26T06:35:01;10.20;99.90
5041;DHT22;2539;52.568;13.364;2022-12-26T06:37:27;10.20;99.90
5041;DHT22;2539;52.568;13.364;2022-12-26T06:39:53;10.20;99.90
5041;DHT22;2539;52.568;13.364;2022-12-26T06:42:20;10.10;99.90
5041;DHT22;2539;52.568;13.364;2022-12-26T06:44:46;10.20;99.90
5041;DHT22;2539;52.568;13.364;2022-12-26T06:47:12;10.20;99.90
5041;DHT22;2539;52.568;13.364;2022-12-26T06:49:38;10.20;99.90
5041;DHT22;2539;52.568;13.364;2022-12-26T06:52:05;10.20;99.90
5041;DHT22;2539;52.568;13.364;2022-12-26T06:54:32;10.20;99.90
5041;DHT22;2539;52.568;13.364;2022-12-26T06:56:58;10.10;99.90
5041;DHT22;2539;52.568;13.364;2022-12-26T06:59:24;10.20;99.90
5041;DHT22;2539;52.568;13.364;2022-12-26T07:01:51;10.10;99.90
5041;DHT22;2539;52.568;13.364;2022-12-26T07:04:17;10.20;99.90
5041;DHT22;2539;52.568;13.364;2022-12-26T07:06:43;10.20;99.90
5041;DHT22;2539;52.568;13.364;2022-12-26T07:09:15;10.20;99.90
5041;DHT22;2539;52.568;13.364;2022-12-26T07:11:46;10.20;99.90
5041;DHT22;2539;52.568;13.364;2022-12-26T07:14:14;10.10;99.90
5041;DHT22;2539;52.568;13.364;2022-12-26T07:16:42;10.20;99.90
5041;DHT22;2539;52.568;13.364;2022-12-26T07:19:11;10.10;99.90
5041;DHT22;2539;52.568;13.364;2022-12-26T07:21:38;10.10;99.90
5041;DHT22;2539;52.568;13.364;2022-12-26T07:24:05;10.10;99.90
5041;DHT22;2539;52.568;13.364;2022-12-26T07:26:32;10.10;99.90
5041;DHT22;2539;52.568;13.364;2022-12-26T07:28:58;10.10;99.90
5041;DHT22;2539;52.568;13.364;2022-12-26T07:31:25;10.10;99.90
5041;DHT22;2539;52.568;13.364;2022-12-26T07:33:54;10.10;99.90
5041;DHT22;2539;52.568;13.364;2022-12-26T07:36:21;10.10;99.90
5041;DHT22;2539;52.568;13.364;2022-12-26T07:38:48;10.10;99.90
5041;DHT22;2539;52.568;13.364;2022-12-26T07:41:14;10.10;99.90
5041;DHT22;2539;52.568;13.364;2022-12-26T07:43:59;10.10;99.90
5041;DHT22;2539;52.568;13.364;2022-12-26T07:46:25;10.10;99.90
5041;DHT22;2539;52.568;13.364;2022-12-26T07:48:50;10.00;99.90
5041;DHT22;2539;52.568;13.364;2022-12-26T07:51:16;10.00;99.90
5041;DHT22;2539;52.568;13.364;2022-12-26T07:53:42;10.00;99.90
5041;DHT22;2539;52.568;13.364;2022-12-26T07:56:08;10.10;99.90
5041;DHT22;2539;52.568;13.364;2022-12-26T07:58:34;10.10;99.90
5041;DHT22;2539;52.568;13.364;2022-12-26T08:01:01;10.10;99.90
5041;DHT22;2539;52.568;13.364;2022-12-26T08:03:28;10.10;99.90
5041;DHT22;2539;52.568;13.364;2022-12-26T08:05:55;10.10;99.90
5041;DHT22;2539;52.568;13.364;2022-12-26T08:08:21;10.10;99.90
5041;DHT22;2539;52.568;13.364;2022-12-26T08:10:48;10.20;99.90
5041;DHT22;2539;52.568;13.364;2022-12-26T08:13:23;10.30;99.90
5041;DHT22;2539;52.568;13.364;2022-12-26T08:15:49;10.10;99.90
5041;DHT22;2539;52.568;13.364;2022-12-26T08:18:15;10.30;99.90
5041;DHT22;2539;52.568;13.364;2022-12-26T08:20:41;10.30;99.90
5041;DHT22;2539;52.568;13.364;2022-12-26T08:23:08;10.30;99.90
5041;DHT22;2539;52.568;13.364;2022-12-26T08:25:34;10.30;99.90
5041;DHT22;2539;52.568;13.364;2022-12-26T08:28:00;10.20;99.90
5041;DHT22;2539;52.568;13.364;2022-12-26T08:30:26;10.30;99.90
5041;DHT22;2539;52.568;13.364;2022-12-26T08:32:52;10.30;99.90
5041;DHT22;2539;52.568;13.364;2022-12-26T08:35:17;10.30;99.90
5041;DHT22;2539;52.568;13.364;2022-12-26T08:37:43;10.30;99.90
5041;DHT22;2539;52.568;13.364;2022-12-26T08:40:09;10.30;99.90
5041;DHT22;2539;52.568;13.364;2022-12-26T08:42:35;10.30;99.90
5041;DHT22;2539;52.568;13.364;2022-12-26T08:45:02;10.40;99.90
5041;DHT22;2539;52.568;13.364;2022-12-26T08:47:28;10.40;99.90
5041;DHT22;2539;52.568;13.364;2022-12-26T08:49:54;10.40;99.90
5041;DHT22;2539;52.568;13.364;2022-12-26T08:52:21;10.40;99.90
5041;DHT22;2539;52.568;13.364;2022-12-26T08:54:47;10.50;99.90
5041;DHT22;2539;52.568;13.364;2022-12-26T08:57:13;10.50;99.90
5041;DHT22;2539;52.568;13.364;2022-12-26T08:59:41;10.60;99.90
5041;DHT22;2539;52.568;13.364;2022-12-26T09:02:10;10.50;99.90
5041;DHT22;2539;52.568;13.364;2022-12-26T09:04:36;10.50;99.90
5041;DHT22;2539;52.568;13.364;2022-12-26T09:07:03;10.50;99.90
5041;DHT22;2539;52.568;13.364;2022-12-26T09:09:29;10.50;99.90
5041;DHT22;2539;52.568;13.364;2022-12-26T09:11:56;10.40;99.90
5041;DHT22;2539;52.568;13.364;2022-12-26T09:14:22;10.50;99.90
5041;DHT22;2539;52.568;13.364;2022-12-26T09:16:48;10.50;99.90
5041;DHT22;2539;52.568;13.364;2022-12-26T09:19:18;10.50;99.90
5041;DHT22;2539;52.568;13.364;2022-12-26T09:21:45;10.60;99.90
5041;DHT22;2539;52.568;13.364;2022-12-26T09:24:16;10.60;99.90
5041;DHT22;2539;52.568;13.364;2022-12-26T09:26:45;10.70;99.90
5041;DHT22;2539;52.568;13.364;2022-12-26T09:29:12;10.70;99.90
5041;DHT22;2539;52.568;13.364;2022-12-26T09:31:39;10.70;99.90
5041;DHT22;2539;52.568;13.364;2022-12-26T09:34:06;10.70;99.90
5041;DHT22;2539;52.568;13.364;2022-12-26T09:36:35;10.70;99.90
5041;DHT22;2539;52.568;13.364;2022-12-26T09:39:05;10.80;99.90
5041;DHT22;2539;52.568;13.364;2022-12-26T09:41:39;10.80;99.90
5041;DHT22;2539;52.568;13.364;2022-12-26T09:47:39;10.80;99.90
5041;DHT22;2539;52.568;13.364;2022-12-26T09:52:53;10.90;99.90
5041;DHT22;2539;52.568;13.364;2022-12-26T09:55:39;11.00;99.90
5041;DHT22;2539;52.568;13.364;2022-12-26T10:01:06;11.00;99.90
5041;DHT22;2539;52.568;13.364;2022-12-26T10:03:37;11.00;99.90
5041;DHT22;2539;52.568;13.364;2022-12-26T10:06:18;11.00;99.90
5041;DHT22;2539;52.568;13.364;2022-12-26T10:11:41;10.90;99.90
5041;DHT22;2539;52.568;13.364;2022-12-26T10:25:21;11.10;99.90
5041;DHT22;2539;52.568;13.364;2022-12-26T10:27:50;11.10;99.90
5041;DHT22;2539;52.568;13.364;2022-12-26T10:30:26;10.90;99.90
5041;DHT22;2539;52.568;13.364;2022-12-26T10:32:59;11.00;99.90
5041;DHT22;2539;52.568;13.364;2022-12-26T10:35:36;11.00;99.90
5041;DHT22;2539;52.568;13.364;2022-12-26T10:41:01;10.90;99.90
5041;DHT22;2539;52.568;13.364;2022-12-26T10:43:32;10.90;99.90
5041;DHT22;2539;52.568;13.364;2022-12-26T10:46:18;10.90;99.90
5041;DHT22;2539;52.568;13.364;2022-12-26T10:48:47;11.80;99.90
5041;DHT22;2539;52.568;13.364;2022-12-26T10:51:14;10.80;99.90
5041;DHT22;2539;52.568;13.364;2022-12-26T10:53:45;10.80;99.90
5041;DHT22;2539;52.568;13.364;2022-12-26T10:56:14;10.70;99.90
5041;DHT22;2539;52.568;13.364;2022-12-26T10:58:40;10.80;99.90
5041;DHT22;2539;52.568;13.364;2022-12-26T11:03:56;10.70;99.90
5041;DHT22;2539;52.568;13.364;2022-12-26T11:06:30;10.70;99.90
5041;DHT22;2539;52.568;13.364;2022-12-26T11:08:58;10.60;99.90
5041;DHT22;2539;52.568;13.364;2022-12-26T11:11:30;10.70;99.90
5041;DHT22;2539;52.568;13.364;2022-12-26T11:14:34;10.70;99.90
5041;DHT22;2539;52.568;13.364;2022-12-26T11:17:06;10.60;99.90
5041;DHT22;2539;52.568;13.364;2022-12-26T11:19:35;10.60;99.90
5041;DHT22;2539;52.568;13.364;2022-12-26T11:22:23;10.50;99.90
5041;DHT22;2539;52.568;13.364;2022-12-26T11:27:39;11.80;99.90
5041;DHT22;2539;52.568;13.364;2022-12-26T11:36:09;10.40;99.90
5041;DHT22;2539;52.568;13.364;2022-12-26T11:41:19;10.40;99.90
5041;DHT22;2539;52.568;13.364;2022-12-26T11:49:02;10.90;99.90
5041;DHT22;2539;52.568;13.364;2022-12-26T11:51:44;10.70;99.90
5041;DHT22;2539;52.568;13.364;2022-12-26T11:54:19;10.70;99.90
5041;DHT22;2539;52.568;13.364;2022-12-26T11:56:47;10.90;99.90
5041;DHT22;2539;52.568;13.364;2022-12-26T11:59:21;10.90;99.90
5041;DHT22;2539;52.568;13.364;2022-12-26T12:02:23;10.90;99.90
5041;DHT22;2539;52.568;13.364;2022-12-26T12:04:52;11.00;99.90
5041;DHT22;2539;52.568;13.364;2022-12-26T12:10:33;11.00;99.90
5041;DHT22;2539;52.568;13.364;2022-12-26T12:13:14;10.80;99.90
5041;DHT22;2539;52.568;13.364;2022-12-26T12:16:10;10.80;99.90
5041;DHT22;2539;52.568;13.364;2022-12-26T12:18:54;10.70;99.90
5041;DHT22;2539;52.568;13.364;2022-12-26T12:21:59;10.60;99.90
5041;DHT22;2539;52.568;13.364;2022-12-26T12:27:20;10.50;99.90
5041;DHT22;2539;52.568;13.364;2022-12-26T12:38:17;10.40;99.90
5041;DHT22;2539;52.568;13.364;2022-12-26T12:46:44;10.40;99.90
5041;DHT22;2539;52.568;13.364;2022-12-26T12:49:40;10.40;99.90
5041;DHT22;2539;52.568;13.364;2022-12-26T12:58:23;11.50;99.90
5041;DHT22;2539;52.568;13.364;2022-12-26T13:00:58;10.60;99.90
5041;DHT22;2539;52.568;13.364;2022-12-26T13:03:32;10.60;99.90
5041;DHT22;2539;52.568;13.364;2022-12-26T13:06:05;10.60;99.90
5041;DHT22;2539;52.568;13.364;2022-12-26T13:08:39;10.60;99.90
5041;DHT22;2539;52.568;13.364;2022-12-26T13:11:19;10.60;99.90
5041;DHT22;2539;52.568;13.364;2022-12-26T13:14:09;10.50;99.90
5041;DHT22;2539;52.568;13.364;2022-12-26T13:16:40;10.50;99.90
5041;DHT22;2539;52.568;13.364;2022-12-26T13:19:17;10.40;99.90
5041;DHT22;2539;52.568;13.364;2022-12-26T13:21:45;10.30;99.90
5041;DHT22;2539;52.568;13.364;2022-12-26T13:24:18;10.20;99.90
5041;DHT22;2539;52.568;13.364;2022-12-26T13:29:38;11.40;99.90
5041;DHT22;2539;52.568;13.364;2022-12-26T13:32:30;10.00;99.90
5041;DHT22;2539;52.568;13.364;2022-12-26T13:34:58;10.20;99.90
5041;DHT22;2539;52.568;13.364;2022-12-26T13:42:50;10.00;99.90
5041;DHT22;2539;52.568;13.364;2022-12-26T13:45:46;10.00;99.90
5041;DHT22;2539;52.568;13.364;2022-12-26T13:56:01;10.00;99.90
5041;DHT22;2539;52.568;13.364;2022-12-26T13:58:52;10.10;99.90
5041;DHT22;2539;52.568;13.364;2022-12-26T14:09:41;10.20;99.90
5041;DHT22;2539;52.568;13.364;2022-12-26T14:12:42;10.20;99.90
5041;DHT22;2539;52.568;13.364;2022-12-26T14:15:27;10.20;99.90
5041;DHT22;2539;52.568;13.364;2022-12-26T14:18:13;10.30;99.90
5041;DHT22;2539;52.568;13.364;2022-12-26T14:21:28;10.20;99.90
5041;DHT22;2539;52.568;13.364;2022-12-26T14:23:58;10.10;99.90
5041;DHT22;2539;52.568;13.364;2022-12-26T14:26:33;10.00;99.90
5041;DHT22;2539;52.568;13.364;2022-12-26T14:34:48;9.60;99.90
5041;DHT22;2539;52.568;13.364;2022-12-26T14:45:46;9.40;99.90
5041;DHT22;2539;52.568;13.364;2022-12-26T14:56:30;9.30;99.90
5041;DHT22;2539;52.568;13.364;2022-12-26T14:58:56;9.40;99.90
5041;DHT22;2539;52.568;13.364;2022-12-26T15:06:57;9.70;99.90
5041;DHT22;2539;52.568;13.364;2022-12-26T15:20:43;9.90;99.90
5041;DHT22;2539;52.568;13.364;2022-12-26T15:35:14;9.80;99.90
5041;DHT22;2539;52.568;13.364;2022-12-26T15:38:00;9.70;99.90
5041;DHT22;2539;52.568;13.364;2022-12-26T15:40:54;9.60;99.90
5041;DHT22;2539;52.568;13.364;2022-12-26T15:43:48;9.40;99.90
5041;DHT22;2539;52.568;13.364;2022-12-26T15:46:21;9.30;99.90
5041;DHT22;2539;52.568;13.364;2022-12-26T15:49:12;9.40;99.90
5041;DHT22;2539;52.568;13.364;2022-12-26T15:52:06;9.50;99.90
5041;DHT22;2539;52.568;13.364;2022-12-26T15:55:00;9.50;99.90
5041;DHT22;2539;52.568;13.364;2022-12-26T15:57:52;9.50;99.90
5041;DHT22;2539;52.568;13.364;2022-12-26T16:00:20;9.50;99.90
5041;DHT22;2539;52.568;13.364;2022-12-26T16:11:20;9.30;99.90
5041;DHT22;2539;52.568;13.364;2022-12-26T16:13:56;9.30;99.90
5041;DHT22;2539;52.568;13.364;2022-12-26T16:16:24;9.40;99.90
5041;DHT22;2539;52.568;13.364;2022-12-26T16:18:51;9.50;99.90
5041;DHT22;2539;52.568;13.364;2022-12-26T16:21:19;9.50;99.90
5041;DHT22;2539;52.568;13.364;2022-12-26T16:24:07;9.60;99.90
5041;DHT22;2539;52.568;13.364;2022-12-26T16:26:39;9.70;99.90
5041;DHT22;2539;52.568;13.364;2022-12-26T16:29:06;9.60;99.90
5041;DHT22;2539;52.568;13.364;2022-12-26T16:31:33;9.60;99.90
5041;DHT22;2539;52.568;13.364;2022-12-26T16:34:00;9.60;99.90
5041;DHT22;2539;52.568;13.364;2022-12-26T16:36:28;9.70;99.90
5041;DHT22;2539;52.568;13.364;2022-12-26T16:38:55;9.70;99.90
5041;DHT22;2539;52.568;13.364;2022-12-26T16:41:27;9.70;99.90
5041;DHT22;2539;52.568;13.364;2022-12-26T16:43:55;9.70;99.90
5041;DHT22;2539;52.568;13.364;2022-12-26T16:46:26;9.70;99.90
5041;DHT22;2539;52.568;13.364;2022-12-26T16:49:00;9.70;99.90
5041;DHT22;2539;52.568;13.364;2022-12-26T16:59:35;9.70;99.90
5041;DHT22;2539;52.568;13.364;2022-12-26T17:02:02;9.70;99.90
5041;DHT22;2539;52.568;13.364;2022-12-26T17:04:29;9.90;99.90
5041;DHT22;2539;52.568;13.364;2022-12-26T17:06:59;9.90;99.90
5041;DHT22;2539;52.568;13.364;2022-12-26T17:09:29;9.90;99.90
5041;DHT22;2539;52.568;13.364;2022-12-26T17:12:02;10.00;99.90
5041;DHT22;2539;52.568;13.364;2022-12-26T17:17:03;10.00;99.90
5041;DHT22;2539;52.568;13.364;2022-12-26T17:19:31;9.80;99.90
5041;DHT22;2539;52.568;13.364;2022-12-26T17:22:21;9.80;99.90
5041;DHT22;2539;52.568;13.364;2022-12-26T17:28:34;9.80;99.90
5041;DHT22;2539;52.568;13.364;2022-12-26T17:30:44;9.80;99.90
5041;DHT22;2539;52.568;13.364;2022-12-26T17:33:26;9.70;99.90
5041;DHT22;2539;52.568;13.364;2022-12-26T17:36:01;9.70;99.90
5041;DHT22;2539;52.568;13.364;2022-12-26T17:38:28;9.70;99.90
5041;DHT22;2539;52.568;13.364;2022-12-26T17:40:56;9.60;99.90
5041;DHT22;2539;52.568;13.364;2022-12-26T17:43:35;9.60;99.90
5041;DHT22;2539;52.568;13.364;2022-12-26T17:46:04;9.60;99.90
5041;DHT22;2539;52.568;13.364;2022-12-26T17:48:31;9.50;99.90
5041;DHT22;2539;52.568;13.364;2022-12-26T17:51:00;9.50;99.90
5041;DHT22;2539;52.568;13.364;2022-12-26T17:53:30;9.30;99.90
5041;DHT22;2539;52.568;13.364;2022-12-26T17:56:00;9.40;99.90
5041;DHT22;2539;52.568;13.364;2022-12-26T17:58:28;9.40;99.90
5041;DHT22;2539;52.568;13.364;2022-12-26T18:00:55;9.30;99.90
5041;DHT22;2539;52.568;13.364;2022-12-26T18:03:22;9.40;99.90
5041;DHT22;2539;52.568;13.364;2022-12-26T18:05:48;9.40;99.90
5041;DHT22;2539;52.568;13.364;2022-12-26T18:08:41;9.30;99.90
5041;DHT22;2539;52.568;13.364;2022-12-26T18:11:10;9.30;99.90
5041;DHT22;2539;52.568;13.364;2022-12-26T18:13:37;9.10;99.90
5041;DHT22;2539;52.568;13.364;2022-12-26T18:16:05;9.20;99.90
5041;DHT22;2539;52.568;13.364;2022-12-26T18:21:05;9.10;99.90
5041;DHT22;2539;52.568;13.364;2022-12-26T18:23:32;9.00;99.90
5041;DHT22;2539;52.568;13.364;2022-12-26T18:26:02;9.00;99.90
5041;DHT22;2539;52.568;13.364;2022-12-26T18:28:29;9.00;99.90
5041;DHT22;2539;52.568;13.364;2022-12-26T18:30:55;9.00;99.90
5041;DHT22;2539;52.568;13.364;2022-12-26T18:33:23;8.90;99.90
5041;DHT22;2539;52.568;13.364;2022-12-26T18:35:50;8.90;99.90
5041;DHT22;2539;52.568;13.364;2022-12-26T18:38:19;8.90;99.90
5041;DHT22;2539;52.568;13.364;2022-12-26T18:40:49;8.80;99.90
5041;DHT22;2539;52.568;13.364;2022-12-26T18:43:16;8.70;99.90
5041;DHT22;2539;52.568;13.364;2022-12-26T18:45:42;8.70;99.90
5041;DHT22;2539;52.568;13.364;2022-12-26T18:48:12;8.70;99.90
5041;DHT22;2539;52.568;13.364;2022-12-26T18:50:39;8.70;99.90
5041;DHT22;2539;52.568;13.364;2022-12-26T18:53:05;8.50;99.90
5041;DHT22;2539;52.568;13.364;2022-12-26T18:55:32;8.50;99.90
5041;DHT22;2539;52.568;13.364;2022-12-26T18:57:58;8.50;99.90
5041;DHT22;2539;52.568;13.364;2022-12-26T19:00:25;8.50;99.90
5041;DHT22;2539;52.568;13.364;2022-12-26T19:02:51;8.40;99.90
5041;DHT22;2539;52.568;13.364;2022-12-26T19:05:25;8.50;99.90
5041;DHT22;2539;52.568;13.364;2022-12-26T19:07:52;8.40;99.90
5041;DHT22;2539;52.568;13.364;2022-12-26T19:10:21;8.40;99.90
5041;DHT22;2539;52.568;13.364;2022-12-26T19:12:49;8.30;99.90
5041;DHT22;2539;52.568;13.364;2022-12-26T19:15:16;8.20;99.90
5041;DHT22;2539;52.568;13.364;2022-12-26T19:17:42;8.20;99.90
5041;DHT22;2539;52.568;13.364;2022-12-26T19:20:20;8.20;99.90
5041;DHT22;2539;52.568;13.364;2022-12-26T19:22:48;8.00;99.90
5041;DHT22;2539;52.568;13.364;2022-12-26T19:25:16;8.00;99.90
5041;DHT22;2539;52.568;13.364;2022-12-26T19:27:43;7.90;99.90
5041;DHT22;2539;52.568;13.364;2022-12-26T19:30:10;7.90;99.90
5041;DHT22;2539;52.568;13.364;2022-12-26T19:32:37;7.80;99.90
5041;DHT22;2539;52.568;13.364;2022-12-26T19:35:03;7.80;99.90
5041;DHT22;2539;52.568;13.364;2022-12-26T19:37:30;7.80;99.90
5041;DHT22;2539;52.568;13.364;2022-12-26T19:39:56;7.70;99.90
5041;DHT22;2539;52.568;13.364;2022-12-26T19:42:24;7.50;99.90
5041;DHT22;2539;52.568;13.364;2022-12-26T19:44:50;7.50;99.90
5041;DHT22;2539;52.568;13.364;2022-12-26T19:47:16;7.40;99.90
5041;DHT22;2539;52.568;13.364;2022-12-26T19:49:43;7.40;99.90
5041;DHT22;2539;52.568;13.364;2022-12-26T19:52:10;7.40;99.90
5041;DHT22;2539;52.568;13.364;2022-12-26T19:54:37;7.40;99.90